Главная страница
METAR-TAF:

METAR-TAF

Аэропорты :

Якутск, Россия

широта: 62-01N, долгота: 129-43E, высота над уровнем моря: 103 м

Текущие метеонаблюдения

Эта сводка был подготовлена 42 минут назад, в 18:00 UTC
Штиль
Температура -31°C
Влажность 75%
Давление 1022 hPa
Видимость 10 км и более
Нет облачности ниже 1500 м, и нет кучево-дождевой облачности

METAR: UEEE 151800Z 00000MPS CAVOK M31/M34 Q1022 R23L/420155 NOSIG RMK QFE758

Время: 03:42 (18:42 UTC)

Прогноз

Эта сводка был подготовлена 1 час и 42 минут назад, в 17:00 UTC
Прогноз действительный с 15-го 18 UTC до 16-го 24 UTC
Ветер 2 Узел переменных направлений
Видимость: 5000 м
Отдельные облака на высоте 1100 фута
дымка
временами
С 15-го 18 UTC до 16-го 03 UTC
Видимость: 0300 м
на высоте 300 фута
переохлажденный туман

TAF: UEEE 151700Z 1518/1624 VRB01MPS 5000 BR SCT011 TEMPO 1518/1603 0300 FZFG VV003

Метеонаблюдения и прогнозы для более 4000 аэропортов (сводки METAR и TAF).

Имеющиеся станции представлены на карте желтыми и красными точками.

Чтобы увидеть название станции, наведите на нее мышь.

Затем щелкните, чтобы увидеть метеонаблюдения и метеопрогнозы.

Управление картой: чтобы увеличить масштаб, щелкните зеленые кнопки с черным крестиком; чтобы уменьшить масштаб, щелкните зеленую кнопку с тире; для просмотра соседних карт щелкайте зеленые стрелки.


METAR-TAF: